Time;durP1;ratioP1;P1;durP2;ratioP2;P2;SDS_P1;SDS_P2;PMS_P1;PMS_P2;Temp;Humidity;BMP_temperature;BMP_pressure;BME280_temperature;BME280_humidity;BME280_pressure;Samples;Min_cycle;Max_cycle;Signal;HPM_P1;HPM_P2
2022/11/07 00:01:47;;;;;;;53.85;27.13;;;;;;;7.53;100.00;98841.66;2153096;82;21095;-86
2022/11/07 00:04:47;;;;;;;48.68;24.77;;;;;;;7.56;100.00;98834.83;2158706;82;20970;-86
2022/11/07 00:07:48;;;;;;;44.80;23.22;;;;;;;7.62;100.00;98834.69;2190555;80;20988;-83
2022/11/07 00:10:49;;;;;;;49.88;23.38;;;;;;;7.65;100.00;98839.09;2177663;80;21503;-85
2022/11/07 00:13:50;;;;;;;44.93;22.30;;;;;;;7.70;100.00;98838.14;2189629;81;20968;-87
2022/11/07 00:16:50;;;;;;;45.40;22.87;;;;;;;7.73;100.00;98835.70;2185513;81;20972;-86
2022/11/07 00:19:51;;;;;;;49.90;22.65;;;;;;;7.76;100.00;98837.98;2170773;82;21492;-86
2022/11/07 00:22:52;;;;;;;47.90;22.93;;;;;;;7.81;100.00;98838.82;2157903;82;22058;-86
2022/11/07 00:25:52;;;;;;;46.28;23.15;;;;;;;7.85;100.00;98825.78;2172991;80;20987;-86
2022/11/07 00:28:53;;;;;;;43.87;21.05;;;;;;;7.89;100.00;98824.51;2194306;80;21444;-86
2022/11/07 00:31:54;;;;;;;48.60;22.32;;;;;;;7.92;100.00;98818.47;2155872;82;20988;-85
2022/11/07 00:34:55;;;;;;;39.48;19.98;;;;;;;7.95;100.00;98814.27;2156480;81;21001;-81
2022/11/07 00:37:55;;;;;;;45.10;22.73;;;;;;;7.97;100.00;98814.91;2154108;81;21006;-87
2022/11/07 00:40:56;;;;;;;40.98;21.20;;;;;;;7.97;100.00;98814.91;2151214;81;20954;-84
2022/11/07 00:43:57;;;;;;;40.00;20.43;;;;;;;8.01;100.00;98809.37;2108735;83;21528;-85
2022/11/07 00:46:58;;;;;;;43.52;22.52;;;;;;;8.03;100.00;98813.92;2119911;83;21018;-85
2022/11/07 00:49:59;;;;;;;42.17;21.25;;;;;;;8.05;100.00;98811.51;2091679;84;20993;-85
2022/11/07 00:52:59;;;;;;;36.53;19.50;;;;;;;8.10;100.00;98823.56;2106783;84;20958;-87
2022/11/07 00:56:00;;;;;;;39.18;20.95;;;;;;;8.13;100.00;98820.63;2185373;80;20968;-85
2022/11/07 00:59:01;;;;;;;41.13;20.88;;;;;;;8.17;100.00;98821.95;2182125;80;20958;-85
2022/11/07 01:02:01;;;;;;;35.80;18.80;;;;;;;8.22;100.00;98826.17;2176356;80;20938;-83
2022/11/07 01:05:11;;;;;;;38.10;19.70;;;;;;;8.24;100.00;98824.73;2121485;82;22204;-84
2022/11/07 01:08:12;;;;;;;37.85;21.75;;;;;;;8.25;100.00;98821.14;2069730;86;21567;-83
2022/11/07 01:11:12;;;;;;;40.43;20.80;;;;;;;8.26;100.00;98819.67;2069687;86;21012;-83
2022/11/07 01:14:13;;;;;;;35.13;18.75;;;;;;;8.26;100.00;98818.38;2069475;86;21568;-85
2022/11/07 01:17:14;;;;;;;34.60;19.73;;;;;;;8.26;100.00;98817.55;2069469;86;21028;-84
2022/11/07 01:20:15;;;;;;;33.02;19.32;;;;;;;8.28;100.00;98815.59;2069647;86;20981;-83
2022/11/07 01:23:16;;;;;;;38.38;19.25;;;;;;;8.27;100.00;98813.97;2069386;86;21077;-82
2022/11/07 01:26:16;;;;;;;39.78;20.02;;;;;;;8.30;100.00;98821.95;2069479;86;21013;-85
2022/11/07 01:29:17;;;;;;;38.67;19.00;;;;;;;8.32;100.00;98814.77;2069489;86;21000;-85
2022/11/07 01:32:18;;;;;;;32.10;17.75;;;;;;;8.37;100.00;98816.45;2069525;86;21048;-84
2022/11/07 01:35:18;;;;;;;33.20;19.65;;;;;;;8.39;100.00;98807.96;2069778;86;21503;-84
2022/11/07 01:38:19;;;;;;;36.35;19.02;;;;;;;8.41;100.00;98801.62;2069634;86;21052;-84
2022/11/07 01:41:20;;;;;;;33.73;18.52;;;;;;;8.41;100.00;98799.02;2069625;86;21045;-84
2022/11/07 01:44:21;;;;;;;31.45;19.30;;;;;;;8.42;100.00;98794.61;2147737;83;21013;-84
2022/11/07 01:47:21;;;;;;;36.10;18.45;;;;;;;8.43;100.00;98789.22;2147981;83;21055;-83
2022/11/07 01:50:22;;;;;;;34.27;18.98;;;;;;;8.43;100.00;98785.80;2147986;83;21032;-79
2022/11/07 01:53:23;;;;;;;32.50;17.62;;;;;;;8.44;100.00;98776.98;2104612;84;21064;-84
2022/11/07 01:56:24;;;;;;;37.13;19.65;;;;;;;8.45;100.00;98771.59;2125883;83;21017;-83
2022/11/07 01:59:24;;;;;;;32.67;18.73;;;;;;;8.45;100.00;98765.08;2125761;84;20958;-85
2022/11/07 02:02:25;;;;;;;35.08;19.30;;;;;;;8.47;100.00;98759.69;2125774;84;21006;-84
2022/11/07 02:05:26;;;;;;;33.58;19.27;;;;;;;8.48;100.00;98757.40;2126459;83;21060;-84
2022/11/07 02:08:26;;;;;;;31.52;19.15;;;;;;;8.48;100.00;98753.48;2143394;83;20974;-84
2022/11/07 02:11:27;;;;;;;31.52;18.62;;;;;;;8.45;100.00;98746.81;2143619;83;21319;-85
2022/11/07 02:14:28;;;;;;;32.60;19.92;;;;;;;8.44;100.00;98748.28;2143551;83;21022;-83
2022/11/07 02:17:29;;;;;;;32.78;19.10;;;;;;;8.47;100.00;98747.45;2143787;83;21484;-84
2022/11/07 02:20:29;;;;;;;32.60;18.40;;;;;;;8.49;100.00;98747.28;2143669;83;20990;-84
2022/11/07 02:23:30;;;;;;;37.90;19.02;;;;;;;8.48;100.00;98747.77;2143655;83;20993;-84
2022/11/07 02:26:31;;;;;;;39.80;19.35;;;;;;;8.51;100.00;98744.86;2143660;83;20982;-84
2022/11/07 02:29:31;;;;;;;34.53;19.87;;;;;;;8.51;100.00;98741.43;2143667;83;21009;-83
2022/11/07 02:32:32;;;;;;;38.67;20.60;;;;;;;8.50;100.00;98738.01;2143648;83;20958;-84
2022/11/07 02:35:33;;;;;;;35.73;19.65;;;;;;;8.50;100.00;98738.01;2143502;83;21002;-85
2022/11/07 02:38:34;;;;;;;34.58;20.65;;;;;;;8.49;100.00;98736.35;2143385;83;21037;-83
2022/11/07 02:41:34;;;;;;;32.03;18.67;;;;;;;8.49;100.00;98728.52;2143540;83;20975;-85
2022/11/07 02:44:35;;;;;;;32.15;18.73;;;;;;;8.45;100.00;98724.63;2143638;83;21594;-84
2022/11/07 02:47:36;;;;;;;31.60;19.75;;;;;;;8.44;100.00;98733.44;2143709;83;21567;-83
2022/11/07 02:50:38;;;;;;;36.28;18.57;;;;;;;8.43;100.00;98721.88;2143373;83;20994;-85
2022/11/07 02:53:38;;;;;;;34.45;19.65;;;;;;;8.40;100.00;98719.57;2143664;83;21058;-84
2022/11/07 02:56:39;;;;;;;35.00;19.70;;;;;;;8.40;100.00;98715.66;2143494;83;21083;-85
2022/11/07 02:59:40;;;;;;;33.67;19.77;;;;;;;8.38;100.00;98721.05;2143614;83;21531;-84
2022/11/07 03:02:45;;;;;;;39.30;20.88;;;;;;;8.37;100.00;98718.12;2145025;83;21477;-84
2022/11/07 03:05:43;;;;;;;33.00;19.35;;;;;;;8.37;100.00;98714.69;2146893;83;21018;-84
2022/11/07 03:08:44;;;;;;;33.90;18.48;;;;;;;8.37;100.00;98715.50;2132162;83;21070;-84
2022/11/07 03:11:45;;;;;;;33.00;19.80;;;;;;;8.37;100.00;98714.20;2147815;83;20982;-84
2022/11/07 03:14:45;;;;;;;35.45;19.40;;;;;;;8.36;100.00;98707.84;2147827;83;21005;-84
2022/11/07 03:17:46;;;;;;;30.05;18.25;;;;;;;8.36;100.00;98712.58;2147710;83;21015;-84
2022/11/07 03:20:47;;;;;;;34.70;18.80;;;;;;;8.35;100.00;98711.44;2128695;83;21469;-84
2022/11/07 03:23:48;;;;;;;37.70;19.85;;;;;;;8.34;100.00;98712.39;2126225;83;20987;-83
2022/11/07 03:26:48;;;;;;;31.90;18.30;;;;;;;8.35;100.00;98716.17;2147317;83;20989;-84
2022/11/07 03:29:49;;;;;;;32.23;17.85;;;;;;;8.35;100.00;98716.66;2128008;84;20982;-84
2022/11/07 03:32:50;;;;;;;34.05;18.60;;;;;;;8.34;100.00;98714.52;2125650;83;21533;-84
2022/11/07 03:35:51;;;;;;;34.23;19.75;;;;;;;8.35;100.00;98716.17;2147545;83;20978;-85
2022/11/07 03:38:51;;;;;;;30.68;17.92;;;;;;;8.36;100.00;98717.80;2147695;83;21006;-84
2022/11/07 03:41:52;;;;;;;33.75;18.95;;;;;;;8.38;100.00;98723.66;2128847;83;21497;-85
2022/11/07 03:44:53;;;;;;;31.07;18.90;;;;;;;8.38;100.00;98720.23;2126104;83;21522;-84
2022/11/07 03:47:53;;;;;;;33.78;18.80;;;;;;;8.39;100.00;98717.45;2127372;84;21048;-82
2022/11/07 03:50:54;;;;;;;36.48;21.27;;;;;;;8.40;100.00;98718.27;2148133;83;20978;-78
2022/11/07 03:53:55;;;;;;;39.15;20.50;;;;;;;8.40;100.00;98717.77;2129686;83;20980;-84
2022/11/07 03:56:56;;;;;;;31.05;19.42;;;;;;;8.42;100.00;98724.97;2125643;84;21018;-83
2022/11/07 03:59:56;;;;;;;40.75;22.15;;;;;;;8.45;100.00;98723.81;2147609;83;20979;-82
2022/11/07 04:02:57;;;;;;;39.03;19.45;;;;;;;8.44;100.00;98721.70;2147758;83;21583;-83
2022/11/07 04:05:58;;;;;;;35.55;20.52;;;;;;;8.45;100.00;98724.63;2129031;83;21102;-82
2022/11/07 04:08:59;;;;;;;37.10;20.45;;;;;;;8.46;100.00;98715.00;2133845;83;21545;-85
2022/11/07 04:18:38;;;;;;;36.45;20.15;;;;;;;8.48;100.00;98717.77;2143664;83;21105;-85
2022/11/07 04:21:39;;;;;;;39.67;20.48;;;;;;;8.47;100.00;98715.33;2143632;83;21018;-87
2022/11/07 04:24:39;;;;;;;38.17;21.45;;;;;;;8.49;100.00;98716.78;2143517;83;21528;-85
2022/11/07 04:27:43;;;;;;;36.00;20.45;;;;;;;8.47;100.00;98709.61;2143555;83;21037;-87
2022/11/07 04:30:44;;;;;;;38.50;20.35;;;;;;;8.49;100.00;98708.95;2143799;83;21054;-84
2022/11/07 04:33:44;;;;;;;34.40;19.50;;;;;;;8.48;100.00;98702.59;2143716;83;20975;-85
2022/11/07 04:36:45;;;;;;;36.25;20.17;;;;;;;8.49;100.00;98696.40;2143804;83;20970;-84
2022/11/07 04:39:46;;;;;;;33.67;20.37;;;;;;;8.47;100.00;98687.92;2143770;83;21004;-84
2022/11/07 04:42:47;;;;;;;34.40;19.32;;;;;;;8.46;100.00;98681.89;2143797;83;20999;-85
2022/11/07 04:45:47;;;;;;;41.02;20.27;;;;;;;8.49;100.00;98679.44;2143942;83;21037;-84
2022/11/07 04:48:49;;;;;;;36.77;20.92;;;;;;;8.48;100.00;98676.02;2143760;83;20978;-85
2022/11/07 04:51:49;;;;;;;34.33;18.65;;;;;;;8.50;100.00;98675.37;2143912;83;21097;-85
2022/11/07 04:54:50;;;;;;;37.30;21.45;;;;;;;8.49;100.00;98669.81;2143748;83;21009;-84
2022/11/07 04:57:51;;;;;;;34.08;20.50;;;;;;;8.48;100.00;98666.87;2143729;83;20963;-85
2022/11/07 05:00:52;;;;;;;35.70;20.57;;;;;;;8.45;100.00;98668.53;2143799;83;21057;-83
2022/11/07 05:03:52;;;;;;;34.08;19.45;;;;;;;8.46;100.00;98668.03;2143806;83;21469;-83
2022/11/07 05:06:53;;;;;;;37.45;20.55;;;;;;;8.46;100.00;98671.95;2145961;83;21046;-80
2022/11/07 05:09:54;;;;;;;37.08;20.52;;;;;;;8.46;100.00;98674.06;2143999;83;21029;-84
2022/11/07 05:12:55;;;;;;;35.50;18.87;;;;;;;8.48;100.00;98674.70;2143748;83;20966;-85
2022/11/07 05:15:56;;;;;;;33.98;19.92;;;;;;;8.48;100.00;98672.59;2143840;83;21070;-85
2022/11/07 05:18:56;;;;;;;33.92;20.68;;;;;;;8.51;100.00;98678.80;2143679;83;20982;-86
2022/11/07 05:25:17;;;;;;;37.48;21.02;;;;;;;8.54;100.00;98678.45;2143720;83;21026;-85
2022/11/07 05:28:17;;;;;;;38.28;21.50;;;;;;;8.58;100.00;98678.44;2123966;83;20974;-86
2022/11/07 05:31:18;;;;;;;32.98;19.00;;;;;;;8.62;100.00;98674.52;2143544;83;21049;-85
2022/11/07 05:34:21;;;;;;;33.63;20.57;;;;;;;8.66;100.00;98676.30;2142659;83;21516;-87
2022/11/07 05:37:21;;;;;;;40.12;22.27;;;;;;;8.69;100.00;98679.41;2143706;83;21024;-84
2022/11/07 05:40:22;;;;;;;39.48;21.62;;;;;;;8.69;100.00;98672.06;2143569;83;21540;-86
2022/11/07 05:43:23;;;;;;;37.78;22.32;;;;;;;8.70;100.00;98677.61;2143710;83;21485;-86
2022/11/07 05:46:24;;;;;;;32.95;20.30;;;;;;;8.74;100.00;98687.53;2143760;83;21540;-84
2022/11/07 05:49:25;;;;;;;34.78;19.90;;;;;;;8.76;100.00;98680.83;2143748;83;20990;-85
2022/11/07 05:52:25;;;;;;;35.63;21.85;;;;;;;8.77;100.00;98687.18;2144422;83;21053;-85
2022/11/07 05:55:26;;;;;;;38.20;22.58;;;;;;;8.81;100.00;98692.41;2143588;83;20951;-87
2022/11/07 05:58:27;;;;;;;32.95;19.32;;;;;;;8.82;100.00;98697.95;2143617;83;21022;-86
2022/11/07 06:01:28;;;;;;;35.52;21.77;;;;;;;8.86;100.00;98697.11;2143623;83;20985;-85
2022/11/07 06:04:28;;;;;;;36.77;21.65;;;;;;;8.85;100.00;98704.62;2143578;83;21010;-86
2022/11/07 06:07:29;;;;;;;36.95;22.55;;;;;;;8.89;100.00;98699.40;2142360;83;21026;-86
2022/11/07 06:10:30;;;;;;;36.13;20.52;;;;;;;8.91;100.00;98705.75;2148124;82;21029;-86
2022/11/07 06:13:31;;;;;;;33.80;20.80;;;;;;;8.93;100.00;98703.29;2128918;83;21525;-86
2022/11/07 06:16:31;;;;;;;33.90;21.05;;;;;;;8.96;100.00;98710.80;2138101;83;21050;-87
2022/11/07 06:19:32;;;;;;;36.15;21.87;;;;;;;8.98;100.00;98715.36;2138056;83;20982;-86
2022/11/07 06:22:33;;;;;;;35.20;20.97;;;;;;;9.01;100.00;98722.03;2147702;83;21529;-86
2022/11/07 06:25:34;;;;;;;34.25;21.23;;;;;;;9.02;100.00;98733.61;2128552;83;21065;-85
2022/11/07 06:28:34;;;;;;;33.20;20.20;;;;;;;9.06;100.00;98737.53;2126207;83;21011;-86
2022/11/07 06:31:35;;;;;;;38.58;21.60;;;;;;;9.11;100.00;98745.66;2128776;83;21184;-86
2022/11/07 06:34:36;;;;;;;29.75;19.37;;;;;;;9.16;100.00;98755.62;2128767;83;21521;-85
2022/11/07 06:37:37;;;;;;;34.43;20.08;;;;;;;9.20;100.00;98762.61;2140919;83;20979;-86
2022/11/07 06:40:38;;;;;;;33.92;20.57;;;;;;;9.27;100.00;98763.56;2147815;83;21145;-85
2022/11/07 06:43:38;;;;;;;29.85;18.95;;;;;;;9.34;100.00;98760.11;2128576;83;21059;-85
2022/11/07 06:46:39;;;;;;;30.12;19.20;;;;;;;9.44;100.00;98769.05;2125961;83;20998;-86
2022/11/07 06:49:40;;;;;;;35.88;21.00;;;;;;;9.51;100.00;98766.08;2128926;83;21022;-87
2022/11/07 06:52:41;;;;;;;34.03;21.93;;;;;;;9.61;100.00;98763.25;2134441;83;20978;-86
2022/11/07 06:55:42;;;;;;;29.65;19.25;;;;;;;9.69;100.00;98764.02;2128618;83;21576;-84
2022/11/07 06:58:42;;;;;;;31.30;20.20;;;;;;;9.73;100.00;98767.09;2130068;83;21533;-85
2022/11/07 07:01:43;;;;;;;32.08;21.10;;;;;;;9.75;100.00;98774.27;2141229;83;20978;-85
2022/11/07 07:04:44;;;;;;;34.00;22.45;;;;;;;9.76;100.00;98769.34;2128570;83;21481;-85
2022/11/07 07:07:45;;;;;;;41.77;23.87;;;;;;;9.81;100.00;98766.23;2127006;83;21035;-80
2022/11/07 07:10:46;;;;;;;32.53;20.25;;;;;;;9.87;100.00;98771.56;2150148;83;21052;-86
2022/11/07 07:13:46;;;;;;;35.35;20.90;;;;;;;9.88;100.00;98771.91;2128703;83;21067;-84
2022/11/07 07:16:47;;;;;;;38.02;22.07;;;;;;;9.94;100.00;98779.54;2138031;83;21381;-84
2022/11/07 07:19:48;;;;;;;49.58;24.47;;;;;;;10.00;100.00;98767.58;2138168;83;21548;-84
2022/11/07 07:22:49;;;;;;;42.35;24.92;;;;;;;10.08;100.00;98766.22;2147806;83;21473;-86
2022/11/07 07:25:51;;;;;;;44.50;26.57;;;;;;;10.13;100.00;98773.03;2128471;83;21133;-86
2022/11/07 07:28:52;;;;;;;38.28;23.60;;;;;;;10.17;100.00;98775.14;2134137;83;21073;-85
2022/11/07 07:31:53;;;;;;;38.63;21.87;;;;;;;10.19;100.00;98763.99;2141048;83;20978;-88
2022/11/07 07:34:53;;;;;;;47.43;26.33;;;;;;;10.27;100.00;98763.64;2128606;83;21525;-87
2022/11/07 07:37:54;;;;;;;42.00;24.05;;;;;;;10.31;100.00;98768.83;2137914;83;20974;-87
2022/11/07 07:40:58;;;;;;;39.25;21.48;;;;;;;10.33;100.00;98766.35;2147557;83;21010;-87
2022/11/07 07:43:58;;;;;;;43.33;24.67;;;;;;;10.38;100.00;98769.77;2128291;83;21041;-85
2022/11/07 07:47:02;;;;;;;36.75;22.02;;;;;;;10.44;100.00;98765.14;2137818;83;21672;-86
2022/11/07 07:50:02;;;;;;;37.93;22.60;;;;;;;10.48;100.00;98766.40;2147427;83;21053;-84
2022/11/07 07:53:03;;;;;;;39.23;22.65;;;;;;;10.54;100.00;98768.31;2129364;83;21078;-85
2022/11/07 07:56:06;;;;;;;32.55;21.07;;;;;;;10.60;100.00;98772.82;2130231;83;21070;-85
2022/11/07 07:59:06;;;;;;;29.50;18.67;;;;;;;10.68;100.00;98783.72;2132781;83;21078;-85
2022/11/07 08:02:07;;;;;;;27.48;17.87;;;;;;;10.78;100.00;98777.72;2128641;84;22107;-84
2022/11/07 08:05:08;;;;;;;26.25;17.10;;;;;;;10.91;100.00;98781.86;2141682;83;21025;-84
2022/11/07 08:08:09;;;;;;;23.00;16.65;;;;;;;11.01;100.00;98778.97;2134363;83;21042;-85
2022/11/07 08:11:10;;;;;;;29.87;17.67;;;;;;;11.07;100.00;98768.59;2142439;83;21595;-84
2022/11/07 08:14:10;;;;;;;28.47;17.85;;;;;;;11.12;100.00;98774.59;2134394;83;20986;-84
2022/11/07 08:17:11;;;;;;;27.40;16.97;;;;;;;11.14;100.00;98777.02;2134522;83;20970;-86
2022/11/07 08:20:12;;;;;;;28.87;17.27;;;;;;;11.17;100.00;98774.87;2128680;83;21013;-89
2022/11/07 08:23:12;;;;;;;27.13;17.85;;;;;;;11.19;100.00;98779.42;2123446;83;20937;-85
2022/11/07 08:26:13;;;;;;;23.45;17.55;;;;;;;11.29;100.00;98775.21;2089003;84;21610;-83
2022/11/07 08:29:14;;;;;;;25.65;15.28;;;;;;;11.38;100.00;98776.23;2134840;83;21471;-84
2022/11/07 08:32:15;;;;;;;24.60;15.45;;;;;;;11.49;100.00;98774.14;2140225;83;21017;-86
2022/11/07 08:35:15;;;;;;;23.20;16.17;;;;;;;11.60;100.00;98774.47;2130971;83;21510;-81
2022/11/07 08:38:16;;;;;;;21.25;14.83;;;;;;;11.70;100.00;98768.93;2089562;84;20960;-83
2022/11/07 08:41:19;;;;;;;23.77;15.58;;;;;;;11.82;100.00;98762.75;2069372;86;21068;-82
2022/11/07 08:44:19;;;;;;;19.73;13.70;;;;;;;11.95;100.00;98769.43;2100451;84;21062;-83
2022/11/07 08:47:20;;;;;;;22.00;14.07;;;;;;;12.08;100.00;98771.39;2102290;83;20966;-81
2022/11/07 08:50:21;;;;;;;23.27;15.80;;;;;;;12.23;100.00;98772.12;2103258;85;21026;-83
2022/11/07 08:53:22;;;;;;;22.50;14.73;;;;;;;12.33;100.00;98773.92;2087404;85;21002;-81
2022/11/07 08:56:22;;;;;;;23.10;15.30;;;;;;;12.42;100.00;98776.72;2068979;86;20961;-81
2022/11/07 08:59:23;;;;;;;18.73;13.93;;;;;;;12.52;100.00;98782.96;2069092;86;20998;-81
2022/11/07 09:02:24;;;;;;;20.40;13.55;;;;;;;12.57;100.00;98782.41;2068979;86;21202;-81
2022/11/07 09:05:25;;;;;;;21.65;14.10;;;;;;;12.58;100.00;98778.77;2046215;86;20982;-82
2022/11/07 09:08:25;;;;;;;18.67;13.13;;;;;;;12.58;100.00;98786.66;2058671;85;21069;-83
2022/11/07 09:11:26;;;;;;;21.07;14.15;;;;;;;12.59;100.00;98785.14;2136244;83;21034;-80
2022/11/07 09:14:27;;;;;;;23.77;12.88;;;;;;;12.60;100.00;98784.14;2137541;83;21468;-86
2022/11/07 09:17:28;;;;;;;19.55;12.68;;;;;;;12.65;100.00;98783.08;2077895;84;21015;-86
2022/11/07 09:20:29;;;;;;;17.90;12.25;;;;;;;12.81;100.00;98791.99;2121973;83;21022;-87
2022/11/07 09:23:29;;;;;;;17.27;10.75;;;;;;;12.91;100.00;98785.59;2126761;83;20994;-88
2022/11/07 09:26:30;;;;;;;21.15;11.60;;;;;;;12.98;100.00;98785.91;2124070;83;21036;-87
2022/11/07 09:29:31;;;;;;;17.85;11.55;;;;;;;13.00;100.00;98782.61;2123712;83;20989;-88
2022/11/07 09:32:31;;;;;;;16.48;10.75;;;;;;;12.99;100.00;98780.99;2129190;83;20957;-86
2022/11/07 09:35:32;;;;;;;13.55;9.10;;;;;;;12.98;100.00;98778.03;2123539;83;21045;-88
2022/11/07 09:38:33;;;;;;;13.22;8.38;;;;;;;13.01;100.00;98776.85;2122241;83;20962;-89
2022/11/07 09:41:33;;;;;;;12.82;9.20;;;;;;;12.95;100.00;98776.30;2123218;83;21060;-85
2022/11/07 09:44:34;;;;;;;11.73;7.78;;;;;;;12.89;100.00;98772.61;2099533;84;21016;-88
2022/11/07 09:47:35;;;;;;;13.65;10.55;;;;;;;12.86;100.00;98776.95;2120684;83;20983;-86
2022/11/07 09:50:35;;;;;;;9.13;7.20;;;;;;;12.82;100.00;98777.04;2115481;83;21020;-88
2022/11/07 09:53:37;;;;;;;11.78;7.60;;;;;;;12.77;100.00;98776.79;2123248;83;21078;-87
2022/11/07 09:56:37;;;;;;;11.30;7.53;;;;;;;12.71;100.00;98774.45;2066281;86;21016;-88
2022/11/07 09:59:38;;;;;;;9.18;7.08;;;;;;;12.68;100.00;98776.63;2120525;83;20973;-82
2022/11/07 10:02:39;;;;;;;8.33;6.70;;;;;;;12.66;100.00;98781.27;2119799;83;20942;-81
2022/11/07 10:05:40;;;;;;;15.18;7.15;;;;;;;12.70;100.00;98779.86;2097421;84;21029;-87
2022/11/07 10:08:41;;;;;;;6.85;6.15;;;;;;;12.73;100.00;98780.81;2092227;84;21056;-87
2022/11/07 10:11:44;;;;;;;9.90;7.00;;;;;;;12.75;100.00;98786.68;2124273;83;20973;-86
2022/11/07 10:14:44;;;;;;;11.15;7.15;;;;;;;12.77;100.00;98788.61;2044971;87;21069;-84
2022/11/07 10:17:45;;;;;;;8.28;6.75;;;;;;;12.74;100.00;98780.62;2126875;83;20993;-82
2022/11/07 10:20:46;;;;;;;11.50;7.47;;;;;;;12.78;100.00;98783.16;2080619;85;21074;-84
2022/11/07 10:23:47;;;;;;;11.12;7.95;;;;;;;12.75;100.00;98784.06;2122028;83;20963;-85
2022/11/07 10:26:47;;;;;;;13.03;8.00;;;;;;;12.71;100.00;98786.73;2126131;83;21560;-86
2022/11/07 10:29:51;;;;;;;10.82;7.65;;;;;;;12.72;100.00;98786.58;2133075;83;21010;-87
2022/11/07 10:32:51;;;;;;;12.80;7.33;;;;;;;12.70;100.00;98781.17;2133550;83;21081;-88
2022/11/07 10:35:51;;;;;;;11.63;7.50;;;;;;;12.71;100.00;98782.33;2133614;83;21588;-86
2022/11/07 10:38:52;;;;;;;10.28;6.75;;;;;;;12.70;100.00;98778.05;2133451;83;21552;-88
2022/11/07 10:41:52;;;;;;;9.23;7.58;;;;;;;12.70;100.00;98778.55;2133530;83;20979;-87
2022/11/07 10:44:53;;;;;;;9.68;7.72;;;;;;;12.66;100.00;98772.88;2134069;83;21026;-88
2022/11/07 10:47:55;;;;;;;9.58;7.25;;;;;;;12.79;100.00;98779.52;2135503;83;21073;-80
2022/11/07 10:50:56;;;;;;;11.43;7.25;;;;;;;12.86;100.00;98780.89;2136098;83;21110;-81
2022/11/07 10:53:56;;;;;;;9.23;6.67;;;;;;;12.88;100.00;98782.82;2137021;83;20943;-80
2022/11/07 10:56:57;;;;;;;9.88;7.53;;;;;;;12.89;100.00;98783.63;2136984;83;20998;-81
2022/11/07 10:59:58;;;;;;;7.25;5.78;;;;;;;12.89;100.00;98785.75;2135346;83;21585;-86
2022/11/07 11:02:59;;;;;;;8.73;6.20;;;;;;;12.90;100.00;98782.14;2135249;83;20983;-87
2022/11/07 11:05:59;;;;;;;9.43;7.00;;;;;;;12.83;100.00;98785.23;2134782;83;21553;-87
2022/11/07 11:09:00;;;;;;;9.63;6.22;;;;;;;12.77;100.00;98785.48;2137488;83;21073;-88
2022/11/07 11:12:01;;;;;;;9.60;6.10;;;;;;;12.73;100.00;98797.89;2144051;83;20951;-85
2022/11/07 11:15:02;;;;;;;9.93;6.70;;;;;;;12.64;100.00;98786.71;2143886;83;21029;-85
2022/11/07 11:18:04;;;;;;;9.63;5.97;;;;;;;12.61;100.00;98792.33;2144008;83;20982;-86
2022/11/07 11:21:05;;;;;;;10.85;7.12;;;;;;;12.54;100.00;98790.17;2144541;83;21070;-86
2022/11/07 11:24:06;;;;;;;10.82;6.30;;;;;;;12.59;100.00;98785.14;2144445;83;21585;-85
2022/11/07 11:27:07;;;;;;;8.40;6.28;;;;;;;12.65;100.00;98792.27;2144045;83;20974;-85
2022/11/07 11:30:07;;;;;;;7.53;6.17;;;;;;;12.64;100.00;98788.02;2144063;83;21025;-86
2022/11/07 11:33:10;;;;;;;7.55;6.03;;;;;;;12.67;100.00;98787.63;2143896;83;21029;-86
2022/11/07 11:36:14;;;;;;;8.15;6.03;;;;;;;12.71;100.00;98791.99;2143932;83;21101;-87
2022/11/07 11:39:14;;;;;;;8.95;6.90;;;;;;;12.70;100.00;98791.18;2144053;83;21018;-87
2022/11/07 11:42:15;;;;;;;7.83;5.70;;;;;;;12.67;100.00;98786.83;2143829;83;21066;-88
2022/11/07 11:45:16;;;;;;;8.03;5.40;;;;;;;12.62;100.00;98791.35;2143850;83;20982;-86
2022/11/07 11:48:17;;;;;;;6.12;5.53;;;;;;;12.63;100.00;98779.84;2143987;83;21053;-87
2022/11/07 11:51:18;;;;;;;7.22;5.87;;;;;;;12.59;100.00;98787.77;2143508;83;21006;-88
2022/11/07 11:54:19;;;;;;;6.55;5.37;;;;;;;12.55;100.00;98779.97;2143918;83;20963;-85
2022/11/07 15:26:08;;;;;;;13.45;8.83;;;;;;;10.33;100.00;98877.58;2237069;79;22201;-85
2022/11/07 15:29:09;;;;;;;16.48;11.68;;;;;;;10.27;100.00;98879.61;2188331;81;21043;-83
2022/11/07 15:32:09;;;;;;;18.40;11.97;;;;;;;10.25;100.00;98881.09;2186135;81;21036;-83
2022/11/07 15:35:10;;;;;;;17.05;11.28;;;;;;;10.22;100.00;98877.49;2181790;81;21030;-80
2022/11/07 15:38:11;;;;;;;17.12;11.12;;;;;;;10.28;100.00;98879.11;2184808;80;20973;-84
2022/11/07 15:41:12;;;;;;;18.77;11.83;;;;;;;10.31;100.00;98876.13;2183298;81;21439;-81
2022/11/07 15:44:12;;;;;;;16.67;10.72;;;;;;;10.35;100.00;98877.44;2182821;81;20969;-82
2022/11/07 15:47:13;;;;;;;22.40;12.00;;;;;;;10.38;100.00;98879.70;2178842;81;21460;-86
2022/11/07 15:50:14;;;;;;;20.70;11.70;;;;;;;10.43;100.00;98878.20;2183617;81;20991;-83
2022/11/07 15:53:15;;;;;;;21.68;11.43;;;;;;;10.50;100.00;98882.22;2181165;81;21049;-84
2022/11/07 15:56:16;;;;;;;18.85;11.03;;;;;;;10.57;100.00;98878.41;2182878;81;20964;-82
2022/11/07 15:59:16;;;;;;;15.88;10.30;;;;;;;10.61;100.00;98871.85;2179862;81;20944;-80
2022/11/07 16:02:17;;;;;;;20.27;12.47;;;;;;;10.63;100.00;98882.46;2182064;81;22156;-84
2022/11/07 16:05:18;;;;;;;18.57;11.12;;;;;;;10.68;100.00;98883.23;2181331;81;20941;-85
2022/11/07 16:08:19;;;;;;;34.33;16.05;;;;;;;10.72;100.00;98874.05;2182514;80;20984;-85
2022/11/07 16:11:19;;;;;;;27.13;16.62;;;;;;;10.72;100.00;98874.05;2185797;81;20992;-84
2022/11/07 16:14:20;;;;;;;27.80;15.63;;;;;;;10.69;100.00;98874.38;2188102;81;21032;-85
2022/11/07 16:17:23;;;;;;;26.50;17.30;;;;;;;10.64;100.00;98877.55;2192217;81;20981;-82
2022/11/07 16:20:24;;;;;;;28.77;19.12;;;;;;;10.59;100.00;98875.93;2189319;81;21029;-84
2022/11/07 16:23:24;;;;;;;27.62;19.10;;;;;;;10.53;100.00;98878.77;2188028;81;21449;-84
2022/11/07 16:26:25;;;;;;;29.52;18.42;;;;;;;10.47;100.00;98882.08;2173877;81;21078;-82
2022/11/07 16:29:26;;;;;;;26.00;16.25;;;;;;;10.38;100.00;98873.96;2163311;82;21092;-83
2022/11/07 16:32:27;;;;;;;24.92;16.02;;;;;;;10.28;100.00;98876.00;2172044;81;21024;-84
2022/11/07 16:35:27;;;;;;;19.75;14.87;;;;;;;10.16;100.00;98884.72;2171790;81;21009;-85
2022/11/07 16:38:28;;;;;;;22.42;15.95;;;;;;;10.05;100.00;98890.80;2171294;82;21005;-84
2022/11/07 16:41:29;;;;;;;27.67;16.65;;;;;;;9.92;100.00;98883.03;2171466;81;20982;-82
2022/11/07 16:44:32;;;;;;;22.62;15.28;;;;;;;9.80;100.00;98886.20;2171244;81;21080;-82
2022/11/07 16:47:34;;;;;;;25.77;15.38;;;;;;;9.71;100.00;98897.19;2185354;81;21014;-83
2022/11/07 16:50:35;;;;;;;21.85;15.40;;;;;;;9.63;100.00;98898.03;2171175;81;21526;-82
2022/11/07 16:53:36;;;;;;;25.12;17.82;;;;;;;9.55;100.00;98894.13;2170967;82;21014;-86
2022/11/07 16:56:38;;;;;;;23.10;15.13;;;;;;;9.48;100.00;98894.97;2160656;82;21073;-83
2022/11/07 16:59:42;;;;;;;21.60;15.98;;;;;;;9.39;100.00;98894.98;2170924;81;21022;-82
2022/11/07 17:02:43;;;;;;;26.93;16.32;;;;;;;9.32;100.00;98901.86;2171284;81;20974;-84
2022/11/07 17:05:44;;;;;;;25.25;16.75;;;;;;;9.22;100.00;98894.70;2171196;82;21061;-86
2022/11/07 17:08:45;;;;;;;27.67;17.98;;;;;;;9.11;100.00;98898.47;2171160;82;21480;-82
2022/11/07 17:11:46;;;;;;;28.35;15.63;;;;;;;9.02;100.00;98903.37;2171371;81;21073;-83
2022/11/07 17:14:48;;;;;;;26.35;17.52;;;;;;;8.95;100.00;98899.79;2160434;82;21052;-83
2022/11/07 17:17:49;;;;;;;25.32;16.35;;;;;;;8.89;100.00;98911.41;2171191;82;20998;-84
2022/11/07 17:20:51;;;;;;;30.27;18.62;;;;;;;8.81;100.00;98909.61;2171375;81;21025;-82
2022/11/07 17:23:52;;;;;;;29.07;19.75;;;;;;;8.75;100.00;98916.28;2173606;81;21017;-77
2022/11/07 17:26:52;;;;;;;26.17;18.37;;;;;;;8.69;100.00;98903.90;2173624;81;20958;-81
2022/11/07 17:29:53;;;;;;;26.10;16.50;;;;;;;8.63;100.00;98899.81;2171819;81;20966;-82